Aérodrome :
LOGIN :

S'inscrire | Disclaimer

   EN    FR    IT 

 










Légende :    VFR   VFR Marginal   IFR   IFR Intensif   IFR Très Intensif
Visi : 
Plafond : 
>= 8 km
>= 3000ft
5 à 8 km
1000 à 3000 ft
1500m à 5 km
500 à 1000 ft
800 à 1500m
200 à 500 ft
< 800m
< 200 ft
Symboles :   Orages  Brouillard  Fortes neiges  Fortes précipitations  Vent > 20 kt
SIGMETs :   Divers  Orages  Givrage  Turbulence  Onde Orograph.  Cendres Volcan.






- Altitude de l'aérodrome : 1989 ft
- Code IATA : KLV


LKKV - Karlovy Vary

DERNIER METAR :
  • 210930Z VRB03KT 9999 FEW048 26/14 Q1011

METARs EXPIRÉS :
  • 210900Z VRB03KT 9999 FEW045 27/14 Q1011
  • 210830Z VRB04KT CAVOK 25/15 Q1011
  • 210800Z VRB03KT CAVOK 24/14 Q1011
  • 210730Z VRB02KT CAVOK 24/14 Q1011
  • 210700Z VRB02KT CAVOK 23/16 Q1011
  • 210630Z 00000KT CAVOK 22/16 Q1011
  • 210600Z VRB01KT CAVOK 21/16 Q1011
  • 210500Z 00000KT CAVOK 17/15 Q1011

TAF TAF LKKV
Valide du 21 à 06h jusqu'au 22 à 06h UTC


210500Z 2106/2206 VRB02KT CAVOK
BECMG 2110/2112 17006KT
TEMPO 2112/2206 8000 SHRA SCT045TCU
PROB40 2113/2120 4000 TSRA SCT040CB
BECMG 2123/2201 26005KT



MET'MAP, la Météo Aéronautique d'un coup d'oeil ! - Copyright ORBIFLY Décembre 2007 - Disclaimer

ORBIFLY MET'MAP TEAM :

Programmation & Développement : Alexandra Zaïnal
Sur une idée originale de : Baudouin d'Aumeries
Soutien technique & logistique : Manuel Goepfert
Assistance : Marc-Olivier Méhu




SOURCES & CREDITS :

   NOAA